DLH4PM EDDV-EDDH
Flight info
| Callsign | DLH4PM |
|---|---|
| Flight time | 0h 22m |
| Altitude | 19000 |
| Route | CEL7S CEL Q282 DIRBO/N0410F210 T902 RARUP RARUP3S |
| Aircraft | A320/M-SDE3FGHIRWY/LB1 |
Departure
| Time | 2026-05-04 10:10 |
|---|---|
| Airport | Hannover Airport (EDDV) |
Arrival
| Time | 2026-05-04 10:32 |
|---|---|
| Airport | Hamburg Helmut Schmidt Airport (EDDH) |
| Time | Latitude | Longitude | Altitude | Speed | Heading |
|---|---|---|---|---|---|
| 2026-05-04 09:40 | 52.45841 | 9.69315 | 179 ft | 0 kts | 47° |
| 2026-05-04 10:02 | 52.45765 | 9.69258 | 178 ft | 0 kts | 324° |
| 2026-05-04 10:05 | 52.45768 | 9.69254 | 178 ft | 4 kts | 324° |
| 2026-05-04 10:05 | 52.45812 | 9.69201 | 178 ft | 8 kts | 323° |
| 2026-05-04 10:05 | 52.45855 | 9.69148 | 178 ft | 7 kts | 323° |
| 2026-05-04 10:05 | 52.45890 | 9.69105 | 178 ft | 6 kts | 323° |
| 2026-05-04 10:06 | 52.45920 | 9.69067 | 178 ft | 6 kts | 323° |
| 2026-05-04 10:06 | 52.45967 | 9.69010 | 179 ft | 10 kts | 323° |
| 2026-05-04 10:06 | 52.46036 | 9.68923 | 178 ft | 15 kts | 322° |
| 2026-05-04 10:08 | 52.46382 | 9.69317 | 178 ft | 18 kts | 69° |
| 2026-05-04 10:08 | 52.46433 | 9.69530 | 179 ft | 22 kts | 69° |
| 2026-05-04 10:08 | 52.46495 | 9.69789 | 178 ft | 25 kts | 68° |
| 2026-05-04 10:08 | 52.46550 | 9.69933 | 178 ft | 13 kts | 39° |
| 2026-05-04 10:09 | 52.46633 | 9.69951 | 176 ft | 12 kts | 356° |
| 2026-05-04 10:09 | 52.46694 | 9.69887 | 175 ft | 10 kts | 284° |
| 2026-05-04 10:09 | 52.46701 | 9.69757 | 175 ft | 13 kts | 272° |
| 2026-05-04 10:09 | 52.46712 | 9.69367 | 175 ft | 68 kts | 273° |
| 2026-05-04 10:10 | 52.46742 | 9.68230 | 176 ft | 128 kts | 273° |
| 2026-05-04 10:10 | 52.46795 | 9.66514 | 283 ft | 166 kts | 273° |
| 2026-05-04 10:10 | 52.46878 | 9.64572 | 814 ft | 177 kts | 275° |
| 2026-05-04 10:10 | 52.47208 | 9.62562 | 1353 ft | 193 kts | 296° |
| 2026-05-04 10:11 | 52.48039 | 9.60717 | 1897 ft | 210 kts | 311° |
| 2026-05-04 10:11 | 52.49113 | 9.58985 | 2560 ft | 223 kts | 315° |
| 2026-05-04 10:11 | 52.50304 | 9.57280 | 3359 ft | 229 kts | 316° |
| 2026-05-04 10:11 | 52.51540 | 9.55598 | 4220 ft | 235 kts | 325° |
| 2026-05-04 10:12 | 52.53102 | 9.54672 | 5008 ft | 247 kts | 351° |
| 2026-05-04 10:12 | 52.54843 | 9.54925 | 5792 ft | 257 kts | 9° |
| 2026-05-04 10:12 | 52.56588 | 9.55516 | 6817 ft | 250 kts | 14° |
| 2026-05-04 10:12 | 52.58072 | 9.56945 | 7768 ft | 253 kts | 46° |
| 2026-05-04 10:13 | 52.58929 | 9.59590 | 8128 ft | 277 kts | 79° |
| 2026-05-04 10:13 | 52.59148 | 9.62847 | 8602 ft | 294 kts | 89° |
| 2026-05-04 10:13 | 52.59141 | 9.66248 | 9559 ft | 300 kts | 94° |
| 2026-05-04 10:13 | 52.59064 | 9.69733 | 10418 ft | 315 kts | 94° |
| 2026-05-04 10:14 | 52.58978 | 9.73464 | 10741 ft | 339 kts | 93° |
| 2026-05-04 10:14 | 52.58913 | 9.77472 | 10957 ft | 362 kts | 92° |
| 2026-05-04 10:16 | 52.66769 | 10.03185 | 9617 ft | 385 kts | 18° |
| 2026-05-04 10:16 | 52.69224 | 10.04687 | 9490 ft | 367 kts | 19° |
| 2026-05-04 10:16 | 52.71557 | 10.06166 | 9346 ft | 351 kts | 19° |
| 2026-05-04 10:16 | 52.73788 | 10.07599 | 9218 ft | 337 kts | 19° |
| 2026-05-04 10:17 | 52.75932 | 10.08974 | 9070 ft | 325 kts | 19° |
| 2026-05-04 10:17 | 52.78001 | 10.10294 | 8987 ft | 311 kts | 18° |
| 2026-05-04 10:19 | 52.91533 | 10.18794 | 9003 ft | 299 kts | 17° |
| 2026-05-04 10:19 | 52.93476 | 10.20014 | 9002 ft | 299 kts | 18° |
| 2026-05-04 10:19 | 52.95420 | 10.21238 | 9003 ft | 299 kts | 18° |
| 2026-05-04 10:19 | 52.97364 | 10.22466 | 9002 ft | 299 kts | 18° |
| 2026-05-04 10:20 | 52.99306 | 10.23695 | 9002 ft | 298 kts | 18° |
| 2026-05-04 10:20 | 53.01245 | 10.24923 | 9002 ft | 298 kts | 18° |
| 2026-05-04 10:20 | 53.03185 | 10.26155 | 9002 ft | 299 kts | 18° |
| 2026-05-04 10:20 | 53.05126 | 10.27393 | 9001 ft | 299 kts | 18° |
| 2026-05-04 10:21 | 53.07066 | 10.28633 | 9001 ft | 299 kts | 18° |
| 2026-05-04 10:21 | 53.09008 | 10.29868 | 8998 ft | 299 kts | 18° |
| 2026-05-04 10:21 | 53.10948 | 10.31097 | 8996 ft | 298 kts | 18° |
| 2026-05-04 10:21 | 53.12888 | 10.32329 | 8994 ft | 299 kts | 18° |
| 2026-05-04 10:22 | 53.16746 | 10.34776 | 8993 ft | 298 kts | 15° |
| 2026-05-04 10:22 | 53.18782 | 10.35438 | 8994 ft | 293 kts | 358° |
| 2026-05-04 10:22 | 53.20761 | 10.35194 | 8994 ft | 287 kts | 343° |
| 2026-05-04 10:23 | 53.22636 | 10.34152 | 8783 ft | 285 kts | 330° |
| 2026-05-04 10:23 | 53.24400 | 10.32681 | 8495 ft | 278 kts | 329° |
| 2026-05-04 10:25 | 53.35230 | 10.23455 | 6812 ft | 232 kts | 328° |
| 2026-05-04 10:25 | 53.36656 | 10.22239 | 6433 ft | 229 kts | 328° |
| 2026-05-04 10:25 | 53.38064 | 10.21037 | 6020 ft | 226 kts | 328° |
| 2026-05-04 10:25 | 53.39456 | 10.19846 | 5610 ft | 223 kts | 329° |
| 2026-05-04 10:26 | 53.40832 | 10.18669 | 5201 ft | 221 kts | 329° |
| 2026-05-04 10:26 | 53.42195 | 10.17504 | 4800 ft | 220 kts | 329° |
| 2026-05-04 10:26 | 53.43551 | 10.16350 | 4385 ft | 217 kts | 329° |
| 2026-05-04 10:26 | 53.44892 | 10.15205 | 3982 ft | 216 kts | 330° |
| 2026-05-04 10:27 | 53.46228 | 10.14063 | 3579 ft | 215 kts | 330° |
| 2026-05-04 10:27 | 53.47563 | 10.12917 | 3175 ft | 215 kts | 330° |
| 2026-05-04 10:27 | 53.48868 | 10.11799 | 2996 ft | 202 kts | 330° |
| 2026-05-04 10:27 | 53.50073 | 10.10768 | 2889 ft | 191 kts | 330° |
| 2026-05-04 10:28 | 53.51238 | 10.09767 | 2622 ft | 184 kts | 330° |
| 2026-05-04 10:28 | 53.52347 | 10.08817 | 2351 ft | 175 kts | 329° |
| 2026-05-04 10:28 | 53.53400 | 10.07916 | 2128 ft | 164 kts | 331° |
| 2026-05-04 10:28 | 53.54395 | 10.07065 | 1892 ft | 156 kts | 329° |
| 2026-05-04 10:29 | 53.55342 | 10.06252 | 1713 ft | 149 kts | 330° |
| 2026-05-04 10:29 | 53.56231 | 10.05488 | 1511 ft | 142 kts | 329° |
| 2026-05-04 10:29 | 53.57103 | 10.04737 | 1324 ft | 140 kts | 328° |
| 2026-05-04 10:29 | 53.57974 | 10.03987 | 1138 ft | 138 kts | 330° |
| 2026-05-04 10:30 | 53.58810 | 10.03266 | 956 ft | 137 kts | 330° |
| 2026-05-04 10:30 | 53.59654 | 10.02536 | 790 ft | 136 kts | 329° |
| 2026-05-04 10:30 | 53.60501 | 10.01803 | 615 ft | 136 kts | 329° |
| 2026-05-04 10:30 | 53.61332 | 10.01074 | 409 ft | 133 kts | 327° |
| 2026-05-04 10:31 | 53.62148 | 10.00372 | 228 ft | 130 kts | 331° |
| 2026-05-04 10:31 | 53.62953 | 9.99679 | 73 ft | 129 kts | 330° |
| 2026-05-04 10:32 | 53.64694 | 9.98493 | 38 ft | 10 kts | 116° |
| 2026-05-04 10:33 | 53.64640 | 9.98553 | 41 ft | 9 kts | 153° |
| 2026-05-04 10:33 | 53.64576 | 9.98608 | 41 ft | 16 kts | 153° |
| 2026-05-04 10:33 | 53.64466 | 9.98703 | 41 ft | 17 kts | 153° |
| 2026-05-04 10:33 | 53.64364 | 9.98790 | 42 ft | 16 kts | 153° |
| 2026-05-04 10:34 | 53.64273 | 9.98870 | 42 ft | 14 kts | 152° |
| 2026-05-04 10:34 | 53.64191 | 9.98941 | 42 ft | 13 kts | 153° |
| 2026-05-04 10:34 | 53.64117 | 9.99004 | 42 ft | 11 kts | 153° |
| 2026-05-04 10:34 | 53.64052 | 9.99061 | 43 ft | 10 kts | 153° |
| 2026-05-04 10:35 | 53.63992 | 9.99113 | 43 ft | 12 kts | 153° |
| 2026-05-04 10:35 | 53.63893 | 9.99199 | 43 ft | 17 kts | 153° |
| 2026-05-04 10:35 | 53.63800 | 9.99292 | 44 ft | 15 kts | 142° |
| 2026-05-04 10:35 | 53.63736 | 9.99411 | 44 ft | 13 kts | 127° |
| 2026-05-04 10:36 | 53.63687 | 9.99525 | 45 ft | 11 kts | 124° |
| 2026-05-04 10:36 | 53.63645 | 9.99621 | 45 ft | 10 kts | 126° |
| 2026-05-04 10:36 | 53.63586 | 9.99761 | 46 ft | 16 kts | 126° |
| 2026-05-04 10:36 | 53.63522 | 9.99908 | 43 ft | 15 kts | 126° |
| 2026-05-04 10:37 | 53.63463 | 10.00045 | 46 ft | 13 kts | 125° |
| 2026-05-04 10:37 | 53.63405 | 10.00152 | 46 ft | 12 kts | 159° |
| 2026-05-04 10:37 | 53.63327 | 10.00168 | 46 ft | 11 kts | 176° |
| 2026-05-04 10:37 | 53.63257 | 10.00168 | 45 ft | 10 kts | 195° |
| 2026-05-04 10:39 | 53.63260 | 10.00073 | 45 ft | 0 kts | 321° |